Date,TemperatureHighF,TemperatureAvgF,TemperatureLowF,DewpointHighF,DewpointAvgF,DewpointLowF,HumidityHigh,HumidityAvg,HumidityLow,PressureMaxIn,PressureMinIn,WindSpeedMaxMPH,WindSpeedAvgMPH,GustSpeedMaxMPH,PrecipitationSumIn
2013-9-1,89.0,78.9,73.0,77.0,71.2,-99.9,92,81,69,29.85,29.75,5,2,5,0.00
2013-9-2,86.0,81.8,74.0,79.0,76.2,72.0,95,84,75,29.79,29.71,6,2,6,0.00
2013-9-3,88.0,80.1,72.0,76.0,68.4,60.0,92,69,48,29.93,29.70,8,2,8,0.00
2013-9-4,81.0,72.7,63.0,67.0,61.3,55.0,85,68,45,30.06,29.93,6,2,6,0.00
2013-9-5,86.0,76.2,67.0,69.0,64.1,54.0,86,67,48,30.11,29.98,9,2,9,0.00
2013-9-6,77.0,66.2,59.0,57.0,52.3,49.0,87,62,43,30.24,30.11,10,3,10,0.00
2013-9-7,81.0,70.0,56.0,67.0,61.9,54.0,97,77,54,30.14,29.92,5,1,5,0.00
2013-9-8,88.0,75.2,68.0,73.0,65.2,-99.9,92,74,57,30.04,29.85,7,1,7,0.00
2013-9-9,79.0,70.6,62.0,69.0,61.0,53.0,87,72,58,30.19,30.04,5,0,5,0.00
2013-9-10,85.0,77.7,72.0,77.0,73.2,69.0,95,86,76,30.18,30.08,0,0,0,0.00
2013-9-11,89.0,81.1,76.0,78.0,75.7,73.0,93,84,68,30.14,30.00,10,2,10,0.00
2013-9-12,80.0,74.9,71.0,76.0,72.2,70.0,97,92,83,30.01,29.73,8,2,8,0.02
2013-9-13,80.0,72.2,67.0,72.0,62.5,55.0,96,74,48,29.89,29.68,3,0,3,0.01
2013-9-14,71.0,63.7,54.0,56.0,52.4,49.0,87,67,50,30.15,29.89,0,0,0,0.00
2013-9-15,75.0,64.5,49.0,64.0,54.2,-99.9,97,74,56,30.23,30.09,5,1,5,0.00
2013-9-16,72.0,68.4,65.0,64.0,60.1,55.0,84,75,64,30.21,30.03,0,0,0,0.00
2013-9-17,69.0,59.9,53.0,56.0,49.3,46.0,81,69,50,30.41,30.22,8,2,8,0.00
2013-9-18,60.0,53.6,49.0,51.0,49.5,47.0,96,86,79,30.35,30.20,0,0,0,0.00
2013-9-19,77.0,65.1,53.0,62.0,57.5,51.0,97,78,54,30.20,30.08,3,1,3,0.00
2013-9-20,78.0,68.4,57.0,66.0,61.4,54.0,95,79,62,30.09,29.96,5,1,5,0.00
2013-9-21,77.0,69.3,64.0,69.0,64.8,59.0,95,86,67,29.98,29.68,10,1,10,0.48
2013-9-22,74.0,65.2,61.0,64.0,56.3,-99.9,96,76,57,29.92,29.70,12,0,12,0.70
2013-9-23,69.0,61.2,56.0,52.0,48.2,45.0,71,63,51,30.07,29.92,12,2,12,0.01
2013-9-27,74.0,69.1,60.0,61.0,59.5,58.0,95,73,62,30.20,30.14,1,0,1,0.00
2013-9-28,74.0,66.6,56.0,60.0,57.6,52.0,88,73,60,30.29,30.21,7,0,7,0.00
2013-9-29,76.0,62.3,54.0,62.0,54.6,-99.9,96,79,57,30.21,30.06,0,0,0,0.00
2013-9-30,77.0,61.2,51.0,60.0,54.2,49.0,97,80,50,30.08,29.98,0,0,0,0.00